12°C  Θερμ.
12°C  Σημείο Δρόσου
100%  Υγρασία
Θερμοκρασία
5 KM/H
3 MPH
3 KTS
Άπνοια
Βόριος

Ταχύτητα Ανέμου
Ομιχλώδης Καιρός
Ατμοσφαιρική πίεση 1016.92 (hPa) - 30.03 (in)
Ορατότητα 4.0 (km) - 2.5 (mi)

Τρέχουσες συνθήκες
LGTS
Location 15(km)
Metar :LGTS 051020Z VRB03KT 4000 1000E BR SCT004 BKN015 12/12 Q1017 NOSIG
Sat 5th December 12:20 pm

Airport
  Metar Aviation API Data Provided by https://www.checkwx.com/ PHP scripts by weather34.com ©2020